createdAt,value
2019-04-20T00:00:09.518Z,1000.93
2019-04-20T00:01:07.358Z,1000.91
2019-04-20T00:02:13.692Z,1000.88
2019-04-20T00:03:06.022Z,1000.90
2019-04-20T00:04:09.887Z,1000.88
2019-04-20T00:05:05.870Z,1000.93
2019-04-20T00:06:06.989Z,1000.86
2019-04-20T00:07:06.046Z,1000.87
2019-04-20T00:08:09.101Z,1000.86
2019-04-20T00:09:12.232Z,1000.86
2019-04-20T00:10:13.104Z,1000.85
2019-04-20T00:11:11.717Z,1000.85
2019-04-20T00:12:12.729Z,1000.84
2019-04-20T00:13:16.583Z,1000.87
2019-04-20T00:14:10.973Z,1000.82
2019-04-20T00:15:05.130Z,1000.84
2019-04-20T00:16:06.232Z,1000.85
2019-04-20T00:17:05.206Z,1000.82
2019-04-20T00:18:06.806Z,1000.79
2019-04-20T00:19:05.841Z,1000.80
2019-04-20T00:20:15.525Z,1000.77
2019-04-20T00:21:08.589Z,1000.75
2019-04-20T00:22:08.263Z,1000.75
2019-04-20T00:23:05.825Z,1000.73
2019-04-20T00:24:11.436Z,1000.72
2019-04-20T00:25:11.867Z,1000.76
2019-04-20T00:26:13.163Z,1000.76
2019-04-20T00:27:26.268Z,1000.73
2019-04-20T00:28:20.808Z,1000.73
2019-04-20T00:29:21.288Z,1000.73
2019-04-20T00:30:26.425Z,1000.72
2019-04-20T00:31:22.491Z,1000.73
2019-04-20T00:32:14.421Z,1000.70
2019-04-20T00:33:14.786Z,1000.68
2019-04-20T00:34:11.941Z,1000.70
2019-04-20T00:35:04.148Z,1000.72
2019-04-20T00:36:03.518Z,1000.66
2019-04-20T00:37:05.185Z,1000.69
2019-04-20T00:38:03.453Z,1000.62
2019-04-20T00:39:06.410Z,1000.60
2019-04-20T00:40:03.717Z,1000.64
2019-04-20T00:41:07.596Z,1000.62
2019-04-20T00:42:06.677Z,1000.60
2019-04-20T00:43:03.090Z,1000.64
2019-04-20T00:44:09.411Z,1000.61
2019-04-20T00:45:10.616Z,1000.62
2019-04-20T00:46:09.107Z,1000.63
2019-04-20T00:47:14.435Z,1000.65
2019-04-20T00:48:07.968Z,1000.61
2019-04-20T00:49:17.307Z,1000.65
2019-04-20T00:50:18.470Z,1000.66
2019-04-20T00:51:24.115Z,1000.66
2019-04-20T00:52:31.288Z,1000.65
2019-04-20T00:53:10.131Z,1000.62
2019-04-20T00:54:03.642Z,1000.67
2019-04-20T00:55:02.420Z,1000.62
2019-04-20T00:56:03.314Z,1000.66
2019-04-20T00:57:13.509Z,1000.64
2019-04-20T00:58:14.778Z,1000.67
2019-04-20T00:59:13.012Z,1000.68
2019-04-20T01:00:21.928Z,1000.67
2019-04-20T01:01:20.567Z,1000.67
2019-04-20T01:02:16.920Z,1000.67
2019-04-20T01:03:15.836Z,1000.66
2019-04-20T01:04:20.231Z,1000.69
2019-04-20T01:05:18.060Z,1000.68
2019-04-20T01:06:24.743Z,1000.71
2019-04-20T01:07:13.945Z,1000.69
2019-04-20T01:08:04.508Z,1000.72
2019-04-20T01:09:01.356Z,1000.70
2019-04-20T01:10:00.934Z,1000.69
2019-04-20T01:11:01.527Z,1000.70
2019-04-20T01:12:05.131Z,1000.68
2019-04-20T01:13:06.731Z,1000.68
2019-04-20T01:14:04.370Z,1000.66
2019-04-20T01:15:05.146Z,1000.66
2019-04-20T01:16:06.222Z,1000.72
2019-04-20T01:17:11.415Z,1000.69
2019-04-20T01:18:00.321Z,1000.69
2019-04-20T01:19:00.244Z,1000.68
2019-04-20T01:20:00.169Z,1000.68
2019-04-20T01:21:06.864Z,1000.65
2019-04-20T01:22:06.635Z,1000.66
2019-04-20T01:23:06.657Z,1000.66
2019-04-20T01:24:04.531Z,1000.63
2019-04-20T01:25:07.884Z,1000.67
2019-04-20T01:26:05.513Z,1000.68
2019-04-20T01:27:02.497Z,1000.70
2019-04-20T01:28:11.914Z,1000.66
2019-04-20T01:29:12.146Z,1000.67
2019-04-20T01:30:09.938Z,1000.69
2019-04-20T01:31:12.543Z,1000.64
2019-04-20T01:32:10.471Z,1000.65
2019-04-20T01:33:14.874Z,1000.63
2019-04-20T01:34:06.185Z,1000.65
2019-04-20T01:35:10.037Z,1000.67
2019-04-20T01:36:21.585Z,1000.65
2019-04-20T01:37:14.473Z,1000.67
2019-04-20T01:38:16.633Z,1000.67
2019-04-20T01:39:10.305Z,1000.67
2019-04-20T01:40:02.349Z,1000.65
2019-04-20T01:40:59.137Z,1000.67
2019-04-20T01:41:58.483Z,1000.65
2019-04-20T01:42:59.511Z,1000.67
2019-04-20T01:43:58.545Z,1000.66
2019-04-20T01:44:59.001Z,1000.71
2019-04-20T01:46:05.091Z,1000.72
2019-04-20T01:47:01.498Z,1000.70
2019-04-20T01:48:00.945Z,1000.68
2019-04-20T01:48:59.939Z,1000.67
2019-04-20T01:50:03.789Z,1000.67
2019-04-20T01:51:05.961Z,1000.71
2019-04-20T01:52:07.653Z,1000.66
2019-04-20T01:53:09.975Z,1000.67
2019-04-20T01:54:12.066Z,1000.67
2019-04-20T01:55:21.201Z,1000.68
2019-04-20T01:56:13.730Z,1000.69
2019-04-20T01:57:09.493Z,1000.68
2019-04-20T01:58:22.424Z,1000.68
2019-04-20T01:59:16.343Z,1000.69
2019-04-20T02:00:06.036Z,1000.74
2019-04-20T02:00:58.842Z,1000.71
2019-04-20T02:02:03.203Z,1000.74
2019-04-20T02:03:01.356Z,1000.71
2019-04-20T02:03:58.697Z,1000.70
2019-04-20T02:05:04.455Z,1000.72
2019-04-20T02:06:03.509Z,1000.69
2019-04-20T02:06:59.660Z,1000.69
2019-04-20T02:07:57.464Z,1000.68
2019-04-20T02:09:00.289Z,1000.70
2019-04-20T02:10:01.918Z,1000.71
2019-04-20T02:11:00.586Z,1000.71
2019-04-20T02:12:05.880Z,1000.66
2019-04-20T02:13:00.181Z,1000.71
2019-04-20T02:14:01.470Z,1000.70
2019-04-20T02:15:00.464Z,1000.72
2019-04-20T02:15:59.835Z,1000.71
2019-04-20T02:17:04.491Z,1000.72
2019-04-20T02:18:08.931Z,1000.70
2019-04-20T02:19:09.300Z,1000.70
2019-04-20T02:20:15.607Z,1000.71
2019-04-20T02:21:15.172Z,1000.72
2019-04-20T02:22:09.732Z,1000.75
2019-04-20T02:23:10.700Z,1000.73
2019-04-20T02:24:00.594Z,1000.73
2019-04-20T02:24:55.262Z,1000.71
2019-04-20T02:25:55.104Z,1000.71
2019-04-20T02:26:55.713Z,1000.76
2019-04-20T02:28:13.625Z,1000.74
2019-04-20T02:29:21.595Z,1000.76
2019-04-20T02:30:21.777Z,1000.73
2019-04-20T02:31:38.271Z,1000.75
2019-04-20T02:32:22.494Z,1000.74
2019-04-20T02:33:40.153Z,1000.75
2019-04-20T02:34:31.656Z,1000.74
2019-04-20T02:35:30.889Z,1000.69
2019-04-20T02:36:44.274Z,1000.71
2019-04-20T02:38:39.197Z,1000.69
2019-04-20T02:40:39.804Z,1000.67
2019-04-20T02:41:32.994Z,1000.71
2019-04-20T02:42:57.997Z,1000.69
2019-04-20T02:45:40.036Z,1000.71
2019-04-20T02:46:24.457Z,1000.71
2019-04-20T02:47:35.731Z,1000.69
2019-04-20T02:48:22.194Z,1000.67
2019-04-20T02:51:31.262Z,1000.71
2019-04-20T02:52:33.491Z,1000.69
2019-04-20T02:53:31.955Z,1000.68
2019-04-20T02:55:22.561Z,1000.68
2019-04-20T02:56:37.429Z,1000.66
2019-04-20T02:58:25.547Z,1000.68
2019-04-20T03:00:19.440Z,1000.65
2019-04-20T03:02:13.005Z,1000.69
2019-04-20T03:03:03.229Z,1000.66
2019-04-20T03:03:57.638Z,1000.68
2019-04-20T03:05:06.669Z,1000.68
2019-04-20T03:06:08.594Z,1000.69
2019-04-20T03:07:09.361Z,1000.67
2019-04-20T03:08:08.528Z,1000.68
2019-04-20T03:09:56.284Z,1000.66
2019-04-20T03:11:11.719Z,1000.67
2019-04-20T03:12:18.759Z,1000.67
2019-04-20T03:13:04.125Z,1000.66
2019-04-20T03:13:59.257Z,1000.64
2019-04-20T03:14:51.489Z,1000.65
2019-04-20T03:16:01.907Z,1000.65
2019-04-20T03:17:06.887Z,1000.67
2019-04-20T03:18:55.706Z,1000.63
2019-04-20T03:19:53.673Z,1000.61
2019-04-20T03:21:00.688Z,1000.63
2019-04-20T03:22:03.800Z,1000.63
2019-04-20T03:24:06.428Z,1000.63
2019-04-20T03:25:02.027Z,1000.58
2019-04-20T03:25:58.504Z,1000.61
2019-04-20T03:26:57.004Z,1000.59
2019-04-20T03:27:59.580Z,1000.56
2019-04-20T03:28:54.115Z,1000.54
2019-04-20T03:29:57.789Z,1000.56
2019-04-20T03:33:21.188Z,1000.56
2019-04-20T03:35:05.316Z,1000.52
2019-04-20T03:36:10.407Z,1000.55
2019-04-20T03:37:07.342Z,1000.55
2019-04-20T03:37:58.815Z,1000.53
2019-04-20T03:38:57.334Z,1000.56
2019-04-20T03:39:54.050Z,1000.54
2019-04-20T03:40:48.349Z,1000.56
2019-04-20T03:41:43.190Z,1000.56
2019-04-20T03:42:37.101Z,1000.56
2019-04-20T03:43:37.097Z,1000.61
2019-04-20T03:44:38.884Z,1000.58
2019-04-20T03:45:44.522Z,1000.59
2019-04-20T03:46:45.103Z,1000.63
2019-04-20T03:47:49.685Z,1000.60
2019-04-20T03:48:56.246Z,1000.59
2019-04-20T03:49:59.544Z,1000.62
2019-04-20T03:50:57.682Z,1000.59
2019-04-20T03:51:57.403Z,1000.62
2019-04-20T03:52:54.261Z,1000.62
2019-04-20T03:53:57.927Z,1000.62
2019-04-20T03:54:48.297Z,1000.63
2019-04-20T03:55:54.015Z,1000.63
2019-04-20T03:56:54.447Z,1000.63
2019-04-20T03:58:01.148Z,1000.60
2019-04-20T03:58:50.533Z,1000.58
2019-04-20T03:59:56.453Z,1000.59
2019-04-20T04:00:50.426Z,1000.58
2019-04-20T04:02:17.073Z,1000.58
2019-04-20T04:03:08.235Z,1000.61
2019-04-20T04:03:58.974Z,1000.59
2019-04-20T04:04:56.335Z,1000.59
2019-04-20T04:05:48.028Z,1000.56
2019-04-20T04:06:44.395Z,1000.56
2019-04-20T04:07:41.558Z,1000.60
2019-04-20T04:08:42.909Z,1000.58
2019-04-20T04:09:47.006Z,1000.60
2019-04-20T04:10:54.864Z,1000.59
2019-04-20T04:11:48.947Z,1000.58
2019-04-20T04:12:38.361Z,1000.61
2019-04-20T04:13:35.500Z,1000.62
2019-04-20T04:14:34.571Z,1000.62
2019-04-20T04:15:38.137Z,1000.63
2019-04-20T04:16:40.974Z,1000.59
2019-04-20T04:17:39.082Z,1000.61
2019-04-20T04:18:40.468Z,1000.59
2019-04-20T04:19:38.255Z,1000.60
2019-04-20T04:20:43.359Z,1000.59
2019-04-20T04:21:49.853Z,1000.55
2019-04-20T04:22:51.510Z,1000.58
2019-04-20T04:24:46.613Z,1000.60
2019-04-20T04:25:54.146Z,1000.59
2019-04-20T04:26:48.893Z,1000.58
2019-04-20T04:27:53.933Z,1000.58
2019-04-20T04:28:47.449Z,1000.58
2019-04-20T04:29:50.937Z,1000.60
2019-04-20T04:30:49.401Z,1000.61
2019-04-20T04:32:01.348Z,1000.61
2019-04-20T04:33:24.467Z,1000.60
2019-04-20T04:33:55.741Z,1000.61
2019-04-20T04:34:51.211Z,1000.64
2019-04-20T04:35:51.600Z,1000.70
2019-04-20T04:36:53.928Z,1000.68
2019-04-20T04:37:47.102Z,1000.67
2019-04-20T04:38:53.493Z,1000.70
2019-04-20T04:39:48.508Z,1000.72
2019-04-20T04:41:06.476Z,1000.76
2019-04-20T04:42:02.151Z,1000.74
2019-04-20T04:42:53.709Z,1000.73
2019-04-20T04:43:49.711Z,1000.77
2019-04-20T04:44:43.540Z,1000.76
2019-04-20T04:45:33.565Z,1000.80
2019-04-20T04:46:33.924Z,1000.83
2019-04-20T04:47:32.669Z,1000.82
2019-04-20T04:48:36.650Z,1000.86
2019-04-20T04:49:36.676Z,1000.88
2019-04-20T04:50:32.951Z,1000.84
2019-04-20T04:51:42.389Z,1000.84
2019-04-20T04:52:43.158Z,1000.92
2019-04-20T04:53:44.230Z,1000.89
2019-04-20T04:54:41.337Z,1000.91
2019-04-20T04:55:41.736Z,1000.86
2019-04-20T04:56:32.001Z,1000.89
2019-04-20T04:57:30.888Z,1000.91
2019-04-20T04:58:31.903Z,1000.92
2019-04-20T04:59:31.701Z,1000.94
2019-04-20T05:00:33.147Z,1000.91
2019-04-20T05:01:33.985Z,1000.97
2019-04-20T05:02:39.306Z,1000.97
2019-04-20T05:03:44.744Z,1000.95
2019-04-20T05:04:58.496Z,1000.96
2019-04-20T05:05:49.188Z,1000.97
2019-04-20T05:06:45.525Z,1000.95
2019-04-20T05:07:43.466Z,1000.98
2019-04-20T05:08:36.744Z,1000.99
2019-04-20T05:09:29.951Z,1001.04
2019-04-20T05:10:30.756Z,1001.06
2019-04-20T05:11:30.083Z,1001.04
2019-04-20T05:12:33.081Z,1001.06
2019-04-20T05:13:38.087Z,1001.10
2019-04-20T05:14:41.840Z,1001.08
2019-04-20T05:15:44.401Z,1001.11
2019-04-20T05:16:45.074Z,1001.15
2019-04-20T05:17:52.749Z,1001.12
2019-04-20T05:18:52.523Z,1001.12
2019-04-20T05:19:47.863Z,1001.15
2019-04-20T05:20:54.611Z,1001.18
2019-04-20T05:21:55.253Z,1001.18
2019-04-20T05:22:45.736Z,1001.17
2019-04-20T05:23:41.195Z,1001.18
2019-04-20T05:24:42.406Z,1001.21
2019-04-20T05:25:54.717Z,1001.19
2019-04-20T05:26:53.393Z,1001.20
2019-04-20T05:27:47.819Z,1001.20
2019-04-20T05:29:37.865Z,1001.19
2019-04-20T05:30:43.500Z,1001.18
2019-04-20T05:31:43.167Z,1001.23
2019-04-20T05:32:44.606Z,1001.21
2019-04-20T05:34:01.188Z,1001.23
2019-04-20T05:35:02.073Z,1001.23
2019-04-20T05:35:58.912Z,1001.22
2019-04-20T05:37:04.690Z,1001.21
2019-04-20T05:38:02.899Z,1001.23
2019-04-20T05:38:55.203Z,1001.22
2019-04-20T05:40:00.340Z,1001.25
2019-04-20T05:40:59.458Z,1001.22
2019-04-20T05:41:51.387Z,1001.23
2019-04-20T05:42:55.589Z,1001.25
2019-04-20T05:43:50.725Z,1001.25
2019-04-20T05:45:01.955Z,1001.25
2019-04-20T05:45:45.383Z,1001.25
2019-04-20T05:46:57.150Z,1001.25
2019-04-20T05:47:52.651Z,1001.23
2019-04-20T05:48:56.175Z,1001.21
2019-04-20T05:49:49.967Z,1001.22
2019-04-20T05:50:52.816Z,1001.23
2019-04-20T05:51:56.158Z,1001.21
2019-04-20T05:53:01.753Z,1001.24
2019-04-20T05:53:50.079Z,1001.24
2019-04-20T05:54:56.279Z,1001.25
2019-04-20T05:57:00.812Z,1001.28
2019-04-20T05:57:56.648Z,1001.25
2019-04-20T05:58:58.048Z,1001.24
2019-04-20T06:00:03.569Z,1001.27
2019-04-20T06:01:58.634Z,1001.31
2019-04-20T06:02:54.880Z,1001.32
2019-04-20T06:03:48.989Z,1001.32
2019-04-20T06:05:50.752Z,1001.33
2019-04-20T06:06:37.729Z,1001.30
2019-04-20T06:07:35.777Z,1001.29
2019-04-20T06:09:42.953Z,1001.28
2019-04-20T06:10:41.799Z,1001.30
2019-04-20T06:11:44.457Z,1001.30
2019-04-20T06:12:37.327Z,1001.34
2019-04-20T06:13:29.919Z,1001.32
2019-04-20T06:14:25.732Z,1001.32
2019-04-20T06:15:30.537Z,1001.35
2019-04-20T06:16:44.102Z,1001.36
2019-04-20T06:17:41.885Z,1001.31
2019-04-20T06:18:32.475Z,1001.31
2019-04-20T06:19:35.430Z,1001.36
2019-04-20T06:20:36.042Z,1001.38
2019-04-20T06:21:39.452Z,1001.36
2019-04-20T06:22:34.985Z,1001.41
2019-04-20T06:23:33.805Z,1001.43
2019-04-20T06:24:49.860Z,1001.41
2019-04-20T06:25:44.294Z,1001.42
2019-04-20T06:26:43.788Z,1001.43
2019-04-20T06:27:34.734Z,1001.41
2019-04-20T06:28:30.138Z,1001.43
2019-04-20T06:29:35.162Z,1001.41
2019-04-20T06:30:30.854Z,1001.43
2019-04-20T06:31:35.684Z,1001.39
2019-04-20T06:32:33.923Z,1001.47
2019-04-20T06:33:52.374Z,1001.45
2019-04-20T06:34:39.946Z,1001.50
2019-04-20T06:35:59.164Z,1001.51
2019-04-20T06:36:43.126Z,1001.53
2019-04-20T06:37:39.088Z,1001.55
2019-04-20T06:38:53.909Z,1001.52
2019-04-20T06:39:41.475Z,1001.53
2019-04-20T06:41:57.110Z,1001.50
2019-04-20T06:42:29.234Z,1001.51
2019-04-20T06:43:42.093Z,1001.54
2019-04-20T06:45:36.420Z,1001.57
2019-04-20T06:46:36.292Z,1001.58
2019-04-20T06:47:29.285Z,1001.57
2019-04-20T06:48:42.642Z,1001.60
2019-04-20T06:49:33.411Z,1001.58
2019-04-20T06:50:32.952Z,1001.62
2019-04-20T06:51:35.045Z,1001.58
2019-04-20T06:52:42.168Z,1001.59
2019-04-20T06:53:36.634Z,1001.58
2019-04-20T06:54:25.593Z,1001.58
2019-04-20T06:55:38.170Z,1001.57
2019-04-20T06:56:35.418Z,1001.59
2019-04-20T06:57:35.669Z,1001.54
2019-04-20T06:58:46.371Z,1001.59
2019-04-20T06:59:40.768Z,1001.52
2019-04-20T07:00:32.142Z,1001.56
2019-04-20T07:01:47.062Z,1001.57
2019-04-20T07:02:38.621Z,1001.56
2019-04-20T07:03:42.312Z,1001.57
2019-04-20T07:04:41.836Z,1001.56
2019-04-20T07:05:34.681Z,1001.53
2019-04-20T07:07:33.902Z,1001.48
2019-04-20T07:08:48.800Z,1001.50
2019-04-20T07:09:42.402Z,1001.46
2019-04-20T07:10:49.491Z,1001.50
2019-04-20T07:12:27.160Z,1001.47
2019-04-20T07:13:23.999Z,1001.52
2019-04-20T07:14:25.835Z,1001.51
2019-04-20T07:15:35.341Z,1001.49
2019-04-20T07:16:28.887Z,1001.47
2019-04-20T07:17:39.251Z,1001.48
2019-04-20T07:18:35.257Z,1001.50
2019-04-20T07:19:31.368Z,1001.52
2019-04-20T07:20:39.620Z,1001.56
2019-04-20T07:21:49.697Z,1001.54
2019-04-20T07:22:33.779Z,1001.50
2019-04-20T07:23:32.625Z,1001.55
2019-04-20T07:24:35.044Z,1001.59
2019-04-20T07:25:31.720Z,1001.56
2019-04-20T07:26:37.449Z,1001.50
2019-04-20T07:27:29.542Z,1001.56
2019-04-20T07:28:31.304Z,1001.58
2019-04-20T07:29:36.883Z,1001.51
2019-04-20T07:30:30.033Z,1001.57
2019-04-20T07:31:29.628Z,1001.58
2019-04-20T07:32:23.425Z,1001.65
2019-04-20T07:33:32.167Z,1001.65
2019-04-20T07:34:26.606Z,1001.62
2019-04-20T07:35:30.581Z,1001.63
2019-04-20T07:36:32.472Z,1001.63
2019-04-20T07:38:34.280Z,1001.58
2019-04-20T07:39:33.110Z,1001.62
2019-04-20T07:40:24.619Z,1001.59
2019-04-20T07:41:45.094Z,1001.58
2019-04-20T07:42:34.599Z,1001.64
2019-04-20T07:43:30.092Z,1001.67
2019-04-20T07:44:36.011Z,1001.63
2019-04-20T07:45:30.879Z,1001.65
2019-04-20T07:46:44.705Z,1001.65
2019-04-20T07:47:38.704Z,1001.64
2019-04-20T07:48:24.802Z,1001.59
2019-04-20T07:49:32.628Z,1001.63
2019-04-20T07:50:21.761Z,1001.57
2019-04-20T07:51:17.649Z,1001.57
2019-04-20T07:52:08.146Z,1001.59
2019-04-20T07:53:25.634Z,1001.63
2019-04-20T07:54:40.204Z,1001.62
2019-04-20T07:56:36.038Z,1001.61
2019-04-20T07:57:25.898Z,1001.61
2019-04-20T07:58:18.196Z,1001.64
2019-04-20T07:59:20.570Z,1001.58
2019-04-20T08:00:35.606Z,1001.60
2019-04-20T08:01:36.137Z,1001.62
2019-04-20T08:02:36.646Z,1001.58
2019-04-20T08:03:33.780Z,1001.62
2019-04-20T08:04:24.613Z,1001.56
2019-04-20T08:05:19.605Z,1001.59
2019-04-20T08:06:15.871Z,1001.65
2019-04-20T08:07:09.493Z,1001.63
2019-04-20T08:08:23.907Z,1001.64
2019-04-20T08:09:19.638Z,1001.64
2019-04-20T08:10:11.437Z,1001.61
2019-04-20T08:11:22.857Z,1001.58
2019-04-20T08:12:34.575Z,1001.56
2019-04-20T08:13:33.390Z,1001.56
2019-04-20T08:14:31.610Z,1001.60
2019-04-20T08:15:36.384Z,1001.55
2019-04-20T08:16:32.883Z,1001.55
2019-04-20T08:17:30.913Z,1001.52
2019-04-20T08:19:24.660Z,1001.55
2019-04-20T08:20:25.700Z,1001.61
2019-04-20T08:21:33.357Z,1001.64
2019-04-20T08:22:26.728Z,1001.57
2019-04-20T08:24:21.466Z,1001.68
2019-04-20T08:25:16.732Z,1001.62
2019-04-20T08:26:14.233Z,1001.64
2019-04-20T08:27:09.291Z,1001.66
2019-04-20T08:28:06.426Z,1001.73
2019-04-20T08:29:20.556Z,1001.66
2019-04-20T08:30:22.816Z,1001.66
2019-04-20T08:31:17.899Z,1001.70
2019-04-20T08:32:25.981Z,1001.69
2019-04-20T08:33:24.555Z,1001.70
2019-04-20T08:34:31.261Z,1001.70
2019-04-20T08:35:29.687Z,1001.73
2019-04-20T08:36:27.224Z,1001.73
2019-04-20T08:37:20.677Z,1001.68
2019-04-20T08:39:37.430Z,1001.70
2019-04-20T08:40:25.424Z,1001.68
2019-04-20T08:41:20.745Z,1001.69
2019-04-20T08:42:21.634Z,1001.64
2019-04-20T08:43:37.710Z,1001.64
2019-04-20T08:44:46.964Z,1001.66
2019-04-20T08:45:23.896Z,1001.68
2019-04-20T08:47:32.337Z,1001.66
2019-04-20T08:48:31.424Z,1001.72
2019-04-20T08:49:31.039Z,1001.72
2019-04-20T08:50:22.341Z,1001.65
2019-04-20T08:51:25.840Z,1001.69
2019-04-20T08:52:52.088Z,1001.75
2019-04-20T08:53:27.592Z,1001.70
2019-04-20T08:54:23.761Z,1001.65
2019-04-20T08:55:19.770Z,1001.66
2019-04-20T08:56:14.232Z,1001.63
2019-04-20T08:57:04.802Z,1001.60
2019-04-20T08:58:02.817Z,1001.60
2019-04-20T08:59:03.903Z,1001.65
2019-04-20T09:00:04.979Z,1001.63
2019-04-20T09:01:06.548Z,1001.62
2019-04-20T09:02:08.464Z,1001.61
2019-04-20T09:03:13.009Z,1001.59
2019-04-20T09:04:10.838Z,1001.58
2019-04-20T09:05:09.062Z,1001.62
2019-04-20T09:06:08.595Z,1001.62
2019-04-20T09:07:10.706Z,1001.59
2019-04-20T09:08:11.350Z,1001.55
2019-04-20T09:09:33.144Z,1001.56
2019-04-20T09:10:28.172Z,1001.58
2019-04-20T09:11:19.623Z,1001.58
2019-04-20T09:12:16.748Z,1001.57
2019-04-20T09:13:11.588Z,1001.62
2019-04-20T09:14:03.855Z,1001.62
2019-04-20T09:15:01.673Z,1001.60
2019-04-20T09:16:02.119Z,1001.57
2019-04-20T09:17:05.873Z,1001.59
2019-04-20T09:18:05.546Z,1001.60
2019-04-20T09:19:07.034Z,1001.54
2019-04-20T09:20:09.638Z,1001.54
2019-04-20T09:21:09.049Z,1001.54
2019-04-20T09:22:12.193Z,1001.55
2019-04-20T09:23:17.194Z,1001.55
2019-04-20T09:24:31.996Z,1001.56
2019-04-20T09:26:16.241Z,1001.49
2019-04-20T09:27:14.269Z,1001.46
2019-04-20T09:28:14.597Z,1001.46
2019-04-20T09:29:12.653Z,1001.46
2019-04-20T09:30:16.054Z,1001.48
2019-04-20T09:31:18.474Z,1001.43
2019-04-20T09:32:21.584Z,1001.42
2019-04-20T09:33:14.692Z,1001.47
2019-04-20T09:34:15.725Z,1001.48
2019-04-20T09:35:22.159Z,1001.42
2019-04-20T09:36:15.311Z,1001.45
2019-04-20T09:37:22.380Z,1001.44
2019-04-20T09:38:14.499Z,1001.32
2019-04-20T09:39:11.355Z,1001.41
2019-04-20T09:40:16.314Z,1001.40
2019-04-20T09:41:22.010Z,1001.34
2019-04-20T09:42:01.454Z,1001.33
2019-04-20T09:43:00.224Z,1001.36
2019-04-20T09:44:00.363Z,1001.39
2019-04-20T09:45:02.788Z,1001.34
2019-04-20T09:46:03.592Z,1001.36
2019-04-20T09:47:01.689Z,1001.37
2019-04-20T09:48:00.553Z,1001.32
2019-04-20T09:49:06.367Z,1001.37
2019-04-20T09:50:18.816Z,1001.34
2019-04-20T09:51:20.369Z,1001.32
2019-04-20T09:52:13.605Z,1001.26
2019-04-20T09:53:14.295Z,1001.27
2019-04-20T09:54:17.447Z,1001.27
2019-04-20T09:55:10.814Z,1001.31
2019-04-20T09:56:18.241Z,1001.30
2019-04-20T09:57:21.313Z,1001.34
2019-04-20T09:58:14.817Z,1001.32
2019-04-20T09:59:16.574Z,1001.31
2019-04-20T10:00:15.857Z,1001.34
2019-04-20T10:01:13.298Z,1001.33
2019-04-20T10:02:06.581Z,1001.31
2019-04-20T10:02:58.324Z,1001.30
2019-04-20T10:03:59.023Z,1001.28
2019-04-20T10:04:58.021Z,1001.29
2019-04-20T10:05:59.226Z,1001.32
2019-04-20T10:07:02.253Z,1001.37
2019-04-20T10:08:01.233Z,1001.35
2019-04-20T10:09:00.464Z,1001.36
2019-04-20T10:09:57.910Z,1001.30
2019-04-20T10:10:57.598Z,1001.30
2019-04-20T10:11:57.633Z,1001.26
2019-04-20T10:12:58.357Z,1001.30
2019-04-20T10:13:58.564Z,1001.23
2019-04-20T10:15:02.678Z,1001.23
2019-04-20T10:15:57.669Z,1001.23
2019-04-20T10:16:57.978Z,1001.17
2019-04-20T10:17:57.113Z,1001.16
2019-04-20T10:18:57.037Z,1001.17
2019-04-20T10:19:57.762Z,1001.17
2019-04-20T10:20:57.953Z,1001.27
2019-04-20T10:21:57.025Z,1001.29
2019-04-20T10:22:56.751Z,1001.26
2019-04-20T10:23:56.683Z,1001.19
2019-04-20T10:24:57.156Z,1001.17
2019-04-20T10:25:56.625Z,1001.12
2019-04-20T10:26:56.627Z,1001.16
2019-04-20T10:27:57.578Z,1001.15
2019-04-20T10:28:57.486Z,1001.13
2019-04-20T10:29:57.502Z,1001.08
2019-04-20T10:30:56.773Z,1001.16
2019-04-20T10:32:00.107Z,1001.11
2019-04-20T10:32:57.366Z,1001.13
2019-04-20T10:33:55.975Z,1001.15
2019-04-20T10:34:56.823Z,1001.11
2019-04-20T10:35:57.330Z,1001.08
2019-04-20T10:36:55.763Z,1001.10
2019-04-20T10:37:55.739Z,1001.03
2019-04-20T10:38:55.624Z,1001.03
2019-04-20T10:39:56.560Z,1001.02
2019-04-20T10:41:04.403Z,1001.11
2019-04-20T10:41:59.015Z,1001.00
2019-04-20T10:42:58.190Z,1001.02
2019-04-20T10:43:56.612Z,1001.01
2019-04-20T10:44:57.207Z,1001.02
2019-04-20T10:45:55.132Z,1000.98
2019-04-20T10:46:55.060Z,1001.05
2019-04-20T10:47:55.086Z,1001.13
2019-04-20T10:48:57.221Z,1001.14
2019-04-20T10:49:55.347Z,1001.16
2019-04-20T10:50:54.884Z,1001.16
2019-04-20T10:51:55.783Z,1001.17
2019-04-20T10:52:55.994Z,1001.12
2019-04-20T10:53:54.567Z,1001.28
2019-04-20T10:54:54.504Z,1001.23
2019-04-20T10:55:55.597Z,1001.28
2019-04-20T10:56:55.412Z,1001.23
2019-04-20T10:57:55.591Z,1001.26
2019-04-20T10:58:54.219Z,1001.18
2019-04-20T10:59:55.382Z,1001.22
2019-04-20T11:00:55.356Z,1001.20
2019-04-20T11:08:56.318Z,1001.17
2019-04-20T11:10:04.381Z,1001.19
2019-04-20T11:11:07.364Z,1001.16
2019-04-20T11:11:56.365Z,1001.07
2019-04-20T11:12:55.058Z,1001.13
2019-04-20T11:13:55.355Z,1001.16
2019-04-20T11:14:54.924Z,1001.01
2019-04-20T11:15:54.879Z,1001.03
2019-04-20T11:16:56.126Z,1000.99
2019-04-20T11:17:57.563Z,1000.98
2019-04-20T11:19:47.564Z,1001.10
2019-04-20T11:20:47.072Z,1001.05
2019-04-20T11:21:48.208Z,1001.00
2019-04-20T11:22:46.936Z,1000.97
2019-04-20T11:23:46.867Z,1001.09
2019-04-20T11:24:48.158Z,1001.13
2019-04-20T11:25:46.731Z,1001.10
2019-04-20T11:26:46.904Z,1001.02
2019-04-20T11:27:47.987Z,1000.95
2019-04-20T11:28:46.522Z,1000.90
2019-04-20T11:29:46.453Z,1000.84
2019-04-20T11:30:46.385Z,1000.87
2019-04-20T11:31:49.505Z,1000.88
2019-04-20T11:32:46.359Z,1000.76
2019-04-20T11:33:46.180Z,1000.78
2019-04-20T11:34:47.110Z,1000.92
2019-04-20T11:35:46.899Z,1000.84
2019-04-20T11:36:45.976Z,1000.93
2019-04-20T11:37:47.048Z,1000.87
2019-04-20T11:38:47.045Z,1000.87
2019-04-20T11:39:45.776Z,1000.95
2019-04-20T11:40:46.890Z,1001.00
2019-04-20T11:41:45.812Z,1001.00
2019-04-20T11:42:45.708Z,1000.95
2019-04-20T11:43:45.512Z,1000.88
2019-04-20T11:44:46.732Z,1000.86
2019-04-20T11:45:46.725Z,1000.90
2019-04-20T11:46:45.318Z,1000.88
2019-04-20T11:47:45.357Z,1000.96
2019-04-20T11:48:45.489Z,1000.92
2019-04-20T11:49:45.814Z,1000.94
2019-04-20T11:50:45.391Z,1000.98
2019-04-20T11:51:45.551Z,1000.95
2019-04-20T11:52:48.136Z,1000.93
2019-04-20T11:53:45.989Z,1000.96
2019-04-20T11:54:44.818Z,1000.96
2019-04-20T11:55:44.757Z,1000.93
2019-04-20T11:56:47.164Z,1000.95
2019-04-20T11:57:45.236Z,1000.96
2019-04-20T11:58:44.904Z,1000.96
2019-04-20T11:59:45.339Z,1000.91
2019-04-20T12:00:55.261Z,1000.93
2019-04-20T12:01:51.976Z,1000.91
2019-04-20T12:02:46.486Z,1000.95
2019-04-20T12:03:54.268Z,1000.97
2019-04-20T12:04:54.362Z,1001.00
2019-04-20T12:05:48.221Z,1000.99
2019-04-20T12:06:44.100Z,1000.99
2019-04-20T12:07:44.806Z,1001.00
2019-04-20T12:08:45.364Z,1001.00
2019-04-20T12:09:43.931Z,1001.06
2019-04-20T12:10:49.250Z,1001.18
2019-04-20T12:11:54.957Z,1001.11
2019-04-20T12:12:47.865Z,1001.25
2019-04-20T12:13:44.870Z,1001.25
2019-04-20T12:14:43.641Z,1001.36
2019-04-20T12:15:43.575Z,1001.40
2019-04-20T12:16:43.780Z,1001.44
2019-04-20T12:17:43.932Z,1001.40
2019-04-20T12:18:44.358Z,1001.45
2019-04-20T12:19:43.881Z,1001.51
2019-04-20T12:20:43.289Z,1001.50
2019-04-20T12:21:43.231Z,1001.44
2019-04-20T12:22:44.261Z,1001.50
2019-04-20T12:23:44.435Z,1001.53
2019-04-20T12:24:44.450Z,1001.55
2019-04-20T12:25:44.580Z,1001.57
2019-04-20T12:26:42.946Z,1001.62
2019-04-20T12:27:50.745Z,1001.55
2019-04-20T12:28:43.380Z,1001.46
2019-04-20T12:29:43.628Z,1001.43
2019-04-20T12:30:43.869Z,1001.47
2019-04-20T12:31:44.292Z,1001.44
2019-04-20T12:32:47.791Z,1001.44
2019-04-20T12:33:42.550Z,1001.48
2019-04-20T12:34:43.422Z,1001.49
2019-04-20T12:35:42.642Z,1001.48
2019-04-20T12:36:42.830Z,1001.35
2019-04-20T12:37:43.150Z,1001.30
2019-04-20T12:38:43.346Z,1001.24
2019-04-20T12:39:42.897Z,1001.31
2019-04-20T12:40:42.156Z,1001.34
2019-04-20T12:41:49.796Z,1001.34
2019-04-20T12:42:43.181Z,1001.29
2019-04-20T12:43:41.987Z,1001.29
2019-04-20T12:44:41.930Z,1001.29